Jonesville, VA (24263)

8:57 AM EDT on July 23, 2014 (GMT -0400)
Jonesville (K0VG) Elev 1411 ft | 36.65 °N, 83.22 °W | Change Station

Current weather conditions updated 22 minutes ago

Rain
Rain
68 °F
Feels Like 68 °F
N
0
Wind Variable Wind from North

Today is forecast to be nearly the same temperature as yesterday. Thunderstorms.

Today
High -- | Low -- °F
--% Chance of Precip.
Yesterday
High -- | Low -- °F
Precip. -- in
6:31 AM 8:46 PM
Waning Crescent, 10% visible
Pressure 30.16 in
Visibility 7.0 miles
Clouds Scattered Clouds 400 ft
Dew Point 68 °F
Humidity 100%
Rainfall 0.00 in
Snow Depth Not available.
UV 1 out of 12
Pollen 3.90 out of 12
Air Quality Not available.
Flu Activity Not available.
METAR K0VG 231235Z AUTO 00000KT 7SM SCT004 20/20 A3016 RMK AO2

More Conditions Fewer Conditions

Pressure 30.16 in
Visibility 7.0 miles
Clouds Scattered Clouds 400 ft
Dew Point 68 °F
Humidity 100%
Rainfall 0.00 in
Snow Depth Not available.
UV 1 out of 12
Pollen 3.90 out of 12
Air Quality Not available.
Flu Activity Not available.
METAR K0VG 231235Z AUTO 00000KT 7SM SCT004 20/20 A3016 RMK AO2

More Conditions Fewer Conditions

10-Day Weather Forecast

Almanac

Astronomy

Jul. 23, 2014 Rise Set
Actual Time 6:31 AM EDT 8:46 PM EDT
Civil Twilight 6:01 AM EDT 9:15 PM EDT
Nautical Twilight 5:26 AM EDT 9:51 PM EDT
Astronomical Twilight 4:46 AM EDT 10:30 PM EDT
Moon 3:48 AM EDT 6:14 PM EDT
Length of Visible Light 15h 13m
Length of Day
14h 14m
Tomorrow will be 1m 30s shorter.
Waning Crescent, 10% of the Moon is Illuminated
Today
Waning Crescent
Jul 26
New
Aug 3
First Quarter
Aug 10
Full
Aug 17
Last Quarter

Today's Extremes

State Highs State Lows

Community

WunderPhotos

Upload Photos

1,736,582 photos uploaded!

Nearby

Snow Depth

Station Depth Elevation
No new snow has been reported.

Earthquake Activity

City Distance Mag. Time & Date
No recent earthquake activity has been reported nearby.
Minimum magnitude displayed is 2.5.

Coastal Water Temperatures

Place Temperature
No Stations Reporting

Nearby Weather Stations

Station Location Temp. Dew Point Humidity Wind Precip. Elev Updated Type
North Zion Hill Rd., Surgoinsville, TN 72.1 °F 71 °F 97% North  at  0.0 mph 0.00 in / hr 1308 ft 8:57 AM EDT Rapid Fire

Show More Stations Show Fewer Stations